sensor_id;sensor_type;location;lat;lon;timestamp;P1;durP1;ratioP1;P2;durP2;ratioP2
3667;SDS011;24099;47.102;15.440;2023-06-10T00:00:30;4.55;;;2.67;;
3667;SDS011;24099;47.102;15.440;2023-06-10T00:02:58;2.88;;;2.30;;
3667;SDS011;24099;47.102;15.440;2023-06-10T00:05:25;6.50;;;2.72;;
3667;SDS011;24099;47.102;15.440;2023-06-10T00:07:55;3.15;;;2.20;;
3667;SDS011;24099;47.102;15.440;2023-06-10T00:10:22;3.80;;;2.60;;
3667;SDS011;24099;47.102;15.440;2023-06-10T00:12:53;3.25;;;2.35;;
3667;SDS011;24099;47.102;15.440;2023-06-10T00:15:23;3.90;;;1.88;;
3667;SDS011;24099;47.102;15.440;2023-06-10T00:17:51;2.55;;;2.05;;
3667;SDS011;24099;47.102;15.440;2023-06-10T00:20:20;3.08;;;2.25;;
3667;SDS011;24099;47.102;15.440;2023-06-10T00:22:51;3.05;;;2.20;;
3667;SDS011;24099;47.102;15.440;2023-06-10T00:25:19;5.07;;;2.28;;
3667;SDS011;24099;47.102;15.440;2023-06-10T00:27:47;2.67;;;1.90;;
3667;SDS011;24099;47.102;15.440;2023-06-10T00:30:16;5.28;;;2.00;;
3667;SDS011;24099;47.102;15.440;2023-06-10T00:32:44;6.45;;;2.20;;
3667;SDS011;24099;47.102;15.440;2023-06-10T00:35:11;4.75;;;2.42;;
3667;SDS011;24099;47.102;15.440;2023-06-10T00:37:39;2.35;;;1.90;;
3667;SDS011;24099;47.102;15.440;2023-06-10T00:40:08;3.78;;;2.10;;
3667;SDS011;24099;47.102;15.440;2023-06-10T00:42:39;2.95;;;2.17;;
3667;SDS011;24099;47.102;15.440;2023-06-10T00:45:07;3.28;;;2.03;;
3667;SDS011;24099;47.102;15.440;2023-06-10T00:47:37;3.35;;;2.53;;
3667;SDS011;24099;47.102;15.440;2023-06-10T00:50:09;3.53;;;2.15;;
3667;SDS011;24099;47.102;15.440;2023-06-10T00:52:38;6.13;;;1.90;;
3667;SDS011;24099;47.102;15.440;2023-06-10T00:55:08;3.03;;;2.15;;
3667;SDS011;24099;47.102;15.440;2023-06-10T00:57:36;2.03;;;1.83;;
3667;SDS011;24099;47.102;15.440;2023-06-10T01:00:05;4.50;;;2.00;;
3667;SDS011;24099;47.102;15.440;2023-06-10T01:02:35;3.08;;;2.17;;
3667;SDS011;24099;47.102;15.440;2023-06-10T01:05:05;3.28;;;2.15;;
3667;SDS011;24099;47.102;15.440;2023-06-10T01:07:36;3.20;;;2.30;;
3667;SDS011;24099;47.102;15.440;2023-06-10T01:10:11;2.60;;;1.80;;
3667;SDS011;24099;47.102;15.440;2023-06-10T01:12:43;2.33;;;1.90;;
3667;SDS011;24099;47.102;15.440;2023-06-10T01:15:17;1.95;;;1.77;;
3667;SDS011;24099;47.102;15.440;2023-06-10T01:18:01;3.30;;;2.28;;
3667;SDS011;24099;47.102;15.440;2023-06-10T01:20:34;2.35;;;1.83;;
3667;SDS011;24099;47.102;15.440;2023-06-10T01:23:07;3.28;;;2.40;;
3667;SDS011;24099;47.102;15.440;2023-06-10T01:25:37;1.70;;;1.55;;
3667;SDS011;24099;47.102;15.440;2023-06-10T01:28:10;2.58;;;2.00;;
3667;SDS011;24099;47.102;15.440;2023-06-10T01:30:45;2.55;;;2.28;;
3667;SDS011;24099;47.102;15.440;2023-06-10T01:33:22;2.15;;;1.92;;
3667;SDS011;24099;47.102;15.440;2023-06-10T01:35:55;1.85;;;1.63;;
3667;SDS011;24099;47.102;15.440;2023-06-10T01:38:26;1.80;;;1.50;;
3667;SDS011;24099;47.102;15.440;2023-06-10T01:40:57;2.88;;;2.08;;
3667;SDS011;24099;47.102;15.440;2023-06-10T01:43:31;4.07;;;2.33;;
3667;SDS011;24099;47.102;15.440;2023-06-10T01:46:00;6.32;;;1.80;;
3667;SDS011;24099;47.102;15.440;2023-06-10T01:48:29;3.35;;;1.88;;
3667;SDS011;24099;47.102;15.440;2023-06-10T01:50:57;1.98;;;1.77;;
3667;SDS011;24099;47.102;15.440;2023-06-10T01:53:30;2.28;;;1.85;;
3667;SDS011;24099;47.102;15.440;2023-06-10T01:55:57;2.58;;;2.08;;
3667;SDS011;24099;47.102;15.440;2023-06-10T01:58:27;3.85;;;2.17;;
3667;SDS011;24099;47.102;15.440;2023-06-10T02:00:55;13.10;;;2.13;;
3667;SDS011;24099;47.102;15.440;2023-06-10T02:03:23;2.25;;;1.80;;
3667;SDS011;24099;47.102;15.440;2023-06-10T02:05:51;3.15;;;1.90;;
3667;SDS011;24099;47.102;15.440;2023-06-10T02:08:19;6.97;;;2.30;;
3667;SDS011;24099;47.102;15.440;2023-06-10T02:10:48;6.32;;;2.30;;
3667;SDS011;24099;47.102;15.440;2023-06-10T02:13:16;2.53;;;1.58;;
3667;SDS011;24099;47.102;15.440;2023-06-10T02:15:44;2.90;;;1.98;;
3667;SDS011;24099;47.102;15.440;2023-06-10T02:18:12;2.60;;;1.92;;
3667;SDS011;24099;47.102;15.440;2023-06-10T02:20:40;1.83;;;1.58;;
3667;SDS011;24099;47.102;15.440;2023-06-10T02:23:13;2.92;;;2.10;;
3667;SDS011;24099;47.102;15.440;2023-06-10T02:25:41;2.08;;;1.88;;
3667;SDS011;24099;47.102;15.440;2023-06-10T02:28:10;2.20;;;1.85;;
3667;SDS011;24099;47.102;15.440;2023-06-10T02:30:38;2.65;;;2.00;;
3667;SDS011;24099;47.102;15.440;2023-06-10T02:33:07;2.42;;;1.92;;
3667;SDS011;24099;47.102;15.440;2023-06-10T02:35:37;2.70;;;1.98;;
3667;SDS011;24099;47.102;15.440;2023-06-10T02:38:05;3.45;;;1.65;;
3667;SDS011;24099;47.102;15.440;2023-06-10T02:40:35;1.83;;;1.60;;
3667;SDS011;24099;47.102;15.440;2023-06-10T02:43:03;2.20;;;1.85;;
3667;SDS011;24099;47.102;15.440;2023-06-10T02:45:33;3.08;;;1.90;;
3667;SDS011;24099;47.102;15.440;2023-06-10T02:48:02;2.20;;;1.65;;
3667;SDS011;24099;47.102;15.440;2023-06-10T02:50:31;5.13;;;2.13;;
3667;SDS011;24099;47.102;15.440;2023-06-10T02:53:14;2.53;;;1.85;;
3667;SDS011;24099;47.102;15.440;2023-06-10T02:55:47;5.53;;;2.70;;
3667;SDS011;24099;47.102;15.440;2023-06-10T02:58:17;2.92;;;2.05;;
3667;SDS011;24099;47.102;15.440;2023-06-10T03:00:46;2.25;;;1.85;;
3667;SDS011;24099;47.102;15.440;2023-06-10T03:03:14;2.65;;;1.92;;
3667;SDS011;24099;47.102;15.440;2023-06-10T03:08:21;6.47;;;2.08;;
3667;SDS011;24099;47.102;15.440;2023-06-10T03:10:49;2.10;;;1.90;;
3667;SDS011;24099;47.102;15.440;2023-06-10T03:13:20;2.95;;;1.88;;
3667;SDS011;24099;47.102;15.440;2023-06-10T03:15:50;4.03;;;2.15;;
3667;SDS011;24099;47.102;15.440;2023-06-10T03:18:25;5.90;;;1.67;;
3667;SDS011;24099;47.102;15.440;2023-06-10T03:20:53;2.45;;;1.80;;
3667;SDS011;24099;47.102;15.440;2023-06-10T03:23:23;1.95;;;1.80;;
3667;SDS011;24099;47.102;15.440;2023-06-10T03:25:52;12.55;;;2.70;;
3667;SDS011;24099;47.102;15.440;2023-06-10T03:28:20;2.60;;;1.98;;
3667;SDS011;24099;47.102;15.440;2023-06-10T03:30:52;2.08;;;1.88;;
3667;SDS011;24099;47.102;15.440;2023-06-10T03:33:22;4.20;;;1.92;;
3667;SDS011;24099;47.102;15.440;2023-06-10T03:35:51;2.17;;;1.73;;
3667;SDS011;24099;47.102;15.440;2023-06-10T03:38:19;1.98;;;1.65;;
3667;SDS011;24099;47.102;15.440;2023-06-10T03:40:47;2.70;;;1.90;;
3667;SDS011;24099;47.102;15.440;2023-06-10T03:43:15;8.10;;;2.55;;
3667;SDS011;24099;47.102;15.440;2023-06-10T03:45:43;3.63;;;2.08;;
3667;SDS011;24099;47.102;15.440;2023-06-10T03:48:12;2.33;;;2.08;;
3667;SDS011;24099;47.102;15.440;2023-06-10T03:50:45;5.93;;;1.98;;
3667;SDS011;24099;47.102;15.440;2023-06-10T03:53:16;2.67;;;2.08;;
3667;SDS011;24099;47.102;15.440;2023-06-10T03:55:45;4.97;;;2.13;;
3667;SDS011;24099;47.102;15.440;2023-06-10T03:58:15;2.05;;;1.85;;
3667;SDS011;24099;47.102;15.440;2023-06-10T04:00:43;2.97;;;2.03;;
3667;SDS011;24099;47.102;15.440;2023-06-10T04:03:13;6.60;;;1.88;;
3667;SDS011;24099;47.102;15.440;2023-06-10T04:05:45;5.25;;;2.00;;
3667;SDS011;24099;47.102;15.440;2023-06-10T04:08:13;2.00;;;1.80;;
3667;SDS011;24099;47.102;15.440;2023-06-10T04:10:41;2.63;;;2.15;;
3667;SDS011;24099;47.102;15.440;2023-06-10T04:13:08;2.75;;;2.00;;
3667;SDS011;24099;47.102;15.440;2023-06-10T04:15:43;2.50;;;1.98;;
3667;SDS011;24099;47.102;15.440;2023-06-10T04:18:17;4.43;;;2.15;;
3667;SDS011;24099;47.102;15.440;2023-06-10T04:20:45;2.88;;;1.95;;
3667;SDS011;24099;47.102;15.440;2023-06-10T04:23:16;2.05;;;1.85;;
3667;SDS011;24099;47.102;15.440;2023-06-10T04:25:45;4.28;;;2.38;;
3667;SDS011;24099;47.102;15.440;2023-06-10T04:28:14;2.60;;;2.00;;
3667;SDS011;24099;47.102;15.440;2023-06-10T04:30:43;2.40;;;2.00;;
3667;SDS011;24099;47.102;15.440;2023-06-10T04:33:12;2.72;;;2.17;;
3667;SDS011;24099;47.102;15.440;2023-06-10T04:35:41;2.95;;;2.25;;
3667;SDS011;24099;47.102;15.440;2023-06-10T04:38:12;5.10;;;1.95;;
3667;SDS011;24099;47.102;15.440;2023-06-10T04:40:41;3.10;;;2.08;;
3667;SDS011;24099;47.102;15.440;2023-06-10T04:43:11;3.35;;;2.65;;
3667;SDS011;24099;47.102;15.440;2023-06-10T04:45:39;5.22;;;3.25;;
3667;SDS011;24099;47.102;15.440;2023-06-10T04:48:10;5.68;;;2.70;;
3667;SDS011;24099;47.102;15.440;2023-06-10T04:50:39;4.50;;;2.72;;
3667;SDS011;24099;47.102;15.440;2023-06-10T04:53:08;3.38;;;2.25;;
3667;SDS011;24099;47.102;15.440;2023-06-10T04:55:37;3.30;;;2.70;;
3667;SDS011;24099;47.102;15.440;2023-06-10T04:58:05;4.32;;;2.75;;
3667;SDS011;24099;47.102;15.440;2023-06-10T05:00:33;4.38;;;2.78;;
3667;SDS011;24099;47.102;15.440;2023-06-10T05:03:01;3.72;;;2.45;;
3667;SDS011;24099;47.102;15.440;2023-06-10T05:05:29;3.45;;;2.42;;
3667;SDS011;24099;47.102;15.440;2023-06-10T05:07:56;4.45;;;2.80;;
3667;SDS011;24099;47.102;15.440;2023-06-10T05:10:25;10.07;;;2.50;;
3667;SDS011;24099;47.102;15.440;2023-06-10T05:12:56;6.15;;;3.33;;
3667;SDS011;24099;47.102;15.440;2023-06-10T05:15:25;3.83;;;2.88;;
3667;SDS011;24099;47.102;15.440;2023-06-10T05:17:52;4.45;;;2.92;;
3667;SDS011;24099;47.102;15.440;2023-06-10T05:20:23;3.10;;;2.63;;
3667;SDS011;24099;47.102;15.440;2023-06-10T05:22:52;3.70;;;2.78;;
3667;SDS011;24099;47.102;15.440;2023-06-10T05:25:26;4.15;;;2.85;;
3667;SDS011;24099;47.102;15.440;2023-06-10T05:27:59;5.53;;;2.92;;
3667;SDS011;24099;47.102;15.440;2023-06-10T05:30:27;5.22;;;3.03;;
3667;SDS011;24099;47.102;15.440;2023-06-10T05:32:55;3.33;;;2.47;;
3667;SDS011;24099;47.102;15.440;2023-06-10T05:35:22;6.32;;;3.25;;
3667;SDS011;24099;47.102;15.440;2023-06-10T05:37:50;2.60;;;2.25;;
3667;SDS011;24099;47.102;15.440;2023-06-10T05:40:18;4.05;;;3.05;;
3667;SDS011;24099;47.102;15.440;2023-06-10T05:42:50;4.22;;;2.60;;
3667;SDS011;24099;47.102;15.440;2023-06-10T05:45:27;4.25;;;2.67;;
3667;SDS011;24099;47.102;15.440;2023-06-10T05:47:54;3.95;;;2.53;;
3667;SDS011;24099;47.102;15.440;2023-06-10T05:50:23;5.75;;;2.80;;
3667;SDS011;24099;47.102;15.440;2023-06-10T05:52:54;4.28;;;2.83;;
3667;SDS011;24099;47.102;15.440;2023-06-10T05:55:23;4.75;;;3.17;;
3667;SDS011;24099;47.102;15.440;2023-06-10T05:57:59;3.92;;;2.88;;
3667;SDS011;24099;47.102;15.440;2023-06-10T06:00:29;3.15;;;2.33;;
3667;SDS011;24099;47.102;15.440;2023-06-10T06:02:57;4.93;;;2.65;;
3667;SDS011;24099;47.102;15.440;2023-06-10T06:05:25;4.50;;;2.95;;
3667;SDS011;24099;47.102;15.440;2023-06-10T06:07:52;3.33;;;2.40;;
3667;SDS011;24099;47.102;15.440;2023-06-10T06:10:20;6.45;;;3.22;;
3667;SDS011;24099;47.102;15.440;2023-06-10T06:12:48;3.92;;;2.42;;
3667;SDS011;24099;47.102;15.440;2023-06-10T06:15:31;6.15;;;2.95;;
3667;SDS011;24099;47.102;15.440;2023-06-10T06:17:59;3.83;;;2.50;;
3667;SDS011;24099;47.102;15.440;2023-06-10T06:20:27;3.00;;;2.40;;
3667;SDS011;24099;47.102;15.440;2023-06-10T06:22:55;3.63;;;2.72;;
3667;SDS011;24099;47.102;15.440;2023-06-10T06:25:23;5.05;;;2.97;;
3667;SDS011;24099;47.102;15.440;2023-06-10T06:27:50;3.92;;;2.83;;
3667;SDS011;24099;47.102;15.440;2023-06-10T06:30:18;2.40;;;2.20;;
3667;SDS011;24099;47.102;15.440;2023-06-10T06:32:47;4.03;;;2.80;;
3667;SDS011;24099;47.102;15.440;2023-06-10T06:35:17;3.80;;;2.80;;
3667;SDS011;24099;47.102;15.440;2023-06-10T06:37:44;4.35;;;2.45;;
3667;SDS011;24099;47.102;15.440;2023-06-10T06:40:18;3.55;;;2.75;;
3667;SDS011;24099;47.102;15.440;2023-06-10T06:42:46;3.72;;;2.72;;
3667;SDS011;24099;47.102;15.440;2023-06-10T06:45:22;4.47;;;3.03;;
3667;SDS011;24099;47.102;15.440;2023-06-10T06:47:53;8.43;;;2.78;;
3667;SDS011;24099;47.102;15.440;2023-06-10T06:50:21;4.13;;;2.90;;
3667;SDS011;24099;47.102;15.440;2023-06-10T06:52:52;6.03;;;3.03;;
3667;SDS011;24099;47.102;15.440;2023-06-10T06:55:20;3.75;;;2.90;;
3667;SDS011;24099;47.102;15.440;2023-06-10T06:57:48;6.43;;;3.13;;
3667;SDS011;24099;47.102;15.440;2023-06-10T07:00:16;4.15;;;3.00;;
3667;SDS011;24099;47.102;15.440;2023-06-10T07:02:45;7.60;;;3.60;;
3667;SDS011;24099;47.102;15.440;2023-06-10T07:05:14;4.45;;;3.55;;
3667;SDS011;24099;47.102;15.440;2023-06-10T07:07:42;5.57;;;3.35;;
3667;SDS011;24099;47.102;15.440;2023-06-10T07:10:10;4.65;;;3.40;;
3667;SDS011;24099;47.102;15.440;2023-06-10T07:12:37;4.50;;;2.97;;
3667;SDS011;24099;47.102;15.440;2023-06-10T07:15:06;4.60;;;3.05;;
3667;SDS011;24099;47.102;15.440;2023-06-10T07:17:34;4.13;;;3.13;;
3667;SDS011;24099;47.102;15.440;2023-06-10T07:20:02;4.95;;;3.10;;
3667;SDS011;24099;47.102;15.440;2023-06-10T07:22:32;4.30;;;3.00;;
3667;SDS011;24099;47.102;15.440;2023-06-10T07:25:00;4.45;;;3.03;;
3667;SDS011;24099;47.102;15.440;2023-06-10T07:27:28;9.00;;;3.13;;
3667;SDS011;24099;47.102;15.440;2023-06-10T07:29:56;4.80;;;3.35;;
3667;SDS011;24099;47.102;15.440;2023-06-10T07:32:26;3.78;;;2.85;;
3667;SDS011;24099;47.102;15.440;2023-06-10T07:34:54;6.35;;;3.60;;
3667;SDS011;24099;47.102;15.440;2023-06-10T07:37:22;2.72;;;2.47;;
3667;SDS011;24099;47.102;15.440;2023-06-10T07:39:51;4.32;;;2.63;;
3667;SDS011;24099;47.102;15.440;2023-06-10T07:42:19;3.22;;;2.38;;
3667;SDS011;24099;47.102;15.440;2023-06-10T07:44:47;4.05;;;2.72;;
3667;SDS011;24099;47.102;15.440;2023-06-10T07:47:15;5.85;;;2.22;;
3667;SDS011;24099;47.102;15.440;2023-06-10T07:49:42;2.85;;;2.22;;
3667;SDS011;24099;47.102;15.440;2023-06-10T07:52:11;3.10;;;2.30;;
3667;SDS011;24099;47.102;15.440;2023-06-10T07:54:39;2.30;;;1.83;;
3667;SDS011;24099;47.102;15.440;2023-06-10T07:57:08;3.10;;;2.08;;
3667;SDS011;24099;47.102;15.440;2023-06-10T07:59:36;2.35;;;2.00;;
3667;SDS011;24099;47.102;15.440;2023-06-10T08:02:04;3.17;;;2.00;;
3667;SDS011;24099;47.102;15.440;2023-06-10T08:04:32;3.33;;;2.10;;
3667;SDS011;24099;47.102;15.440;2023-06-10T08:07:01;3.63;;;2.22;;
3667;SDS011;24099;47.102;15.440;2023-06-10T08:09:30;2.30;;;2.05;;
3667;SDS011;24099;47.102;15.440;2023-06-10T08:12:00;2.25;;;2.03;;
3667;SDS011;24099;47.102;15.440;2023-06-10T08:14:30;2.47;;;2.10;;
3667;SDS011;24099;47.102;15.440;2023-06-10T08:16:58;3.30;;;1.67;;
3667;SDS011;24099;47.102;15.440;2023-06-10T08:19:30;2.25;;;1.90;;
3667;SDS011;24099;47.102;15.440;2023-06-10T08:21:58;4.07;;;2.45;;
3667;SDS011;24099;47.102;15.440;2023-06-10T08:24:26;5.10;;;2.47;;
3667;SDS011;24099;47.102;15.440;2023-06-10T08:26:54;5.07;;;2.13;;
3667;SDS011;24099;47.102;15.440;2023-06-10T08:29:23;3.92;;;2.85;;
3667;SDS011;24099;47.102;15.440;2023-06-10T08:31:53;3.10;;;2.40;;
3667;SDS011;24099;47.102;15.440;2023-06-10T08:34:21;3.95;;;2.40;;
3667;SDS011;24099;47.102;15.440;2023-06-10T08:36:49;5.55;;;2.38;;
3667;SDS011;24099;47.102;15.440;2023-06-10T08:39:20;3.08;;;2.50;;
3667;SDS011;24099;47.102;15.440;2023-06-10T08:41:49;3.03;;;2.70;;
3667;SDS011;24099;47.102;15.440;2023-06-10T08:44:29;3.38;;;2.22;;
3667;SDS011;24099;47.102;15.440;2023-06-10T08:47:00;3.50;;;2.65;;
3667;SDS011;24099;47.102;15.440;2023-06-10T08:49:30;4.93;;;2.22;;
3667;SDS011;24099;47.102;15.440;2023-06-10T08:52:04;2.92;;;2.33;;
3667;SDS011;24099;47.102;15.440;2023-06-10T08:54:35;4.43;;;2.55;;
3667;SDS011;24099;47.102;15.440;2023-06-10T08:57:08;3.95;;;2.85;;
3667;SDS011;24099;47.102;15.440;2023-06-10T08:59:36;3.63;;;2.70;;
3667;SDS011;24099;47.102;15.440;2023-06-10T09:02:06;2.53;;;2.33;;
3667;SDS011;24099;47.102;15.440;2023-06-10T09:04:38;3.97;;;2.65;;
3667;SDS011;24099;47.102;15.440;2023-06-10T09:07:08;3.33;;;2.53;;
3667;SDS011;24099;47.102;15.440;2023-06-10T09:09:37;2.92;;;2.38;;
3667;SDS011;24099;47.102;15.440;2023-06-10T09:12:06;3.25;;;2.28;;
3667;SDS011;24099;47.102;15.440;2023-06-10T09:14:35;3.50;;;2.50;;
3667;SDS011;24099;47.102;15.440;2023-06-10T09:17:02;4.20;;;2.50;;
3667;SDS011;24099;47.102;15.440;2023-06-10T09:19:33;5.05;;;2.75;;
3667;SDS011;24099;47.102;15.440;2023-06-10T09:22:05;2.85;;;2.40;;
3667;SDS011;24099;47.102;15.440;2023-06-10T09:24:33;3.95;;;2.40;;
3667;SDS011;24099;47.102;15.440;2023-06-10T09:27:02;3.35;;;2.50;;
3667;SDS011;24099;47.102;15.440;2023-06-10T09:29:30;5.22;;;2.90;;
3667;SDS011;24099;47.102;15.440;2023-06-10T09:32:13;3.13;;;2.60;;
3667;SDS011;24099;47.102;15.440;2023-06-10T09:34:43;3.28;;;2.38;;
3667;SDS011;24099;47.102;15.440;2023-06-10T09:37:11;4.18;;;2.80;;
3667;SDS011;24099;47.102;15.440;2023-06-10T09:39:39;4.53;;;2.80;;
3667;SDS011;24099;47.102;15.440;2023-06-10T09:42:15;3.45;;;2.58;;
3667;SDS011;24099;47.102;15.440;2023-06-10T09:44:48;5.07;;;3.00;;
3667;SDS011;24099;47.102;15.440;2023-06-10T09:47:20;4.07;;;2.53;;
3667;SDS011;24099;47.102;15.440;2023-06-10T09:49:49;3.70;;;3.15;;
3667;SDS011;24099;47.102;15.440;2023-06-10T09:52:21;3.95;;;2.88;;
3667;SDS011;24099;47.102;15.440;2023-06-10T09:54:49;3.05;;;2.42;;
3667;SDS011;24099;47.102;15.440;2023-06-10T09:57:18;4.05;;;2.72;;
3667;SDS011;24099;47.102;15.440;2023-06-10T09:59:48;3.38;;;2.58;;
3667;SDS011;24099;47.102;15.440;2023-06-10T10:02:21;2.85;;;2.35;;
3667;SDS011;24099;47.102;15.440;2023-06-10T10:04:49;3.60;;;2.72;;
3667;SDS011;24099;47.102;15.440;2023-06-10T10:07:17;4.47;;;2.17;;
3667;SDS011;24099;47.102;15.440;2023-06-10T10:09:45;4.05;;;2.75;;
3667;SDS011;24099;47.102;15.440;2023-06-10T10:12:14;5.07;;;2.78;;
3667;SDS011;24099;47.102;15.440;2023-06-10T10:14:43;3.28;;;2.50;;
3667;SDS011;24099;47.102;15.440;2023-06-10T10:17:14;4.20;;;2.58;;
3667;SDS011;24099;47.102;15.440;2023-06-10T10:19:46;2.85;;;2.40;;
3667;SDS011;24099;47.102;15.440;2023-06-10T10:22:22;2.95;;;2.33;;
3667;SDS011;24099;47.102;15.440;2023-06-10T10:24:53;3.50;;;2.80;;
3667;SDS011;24099;47.102;15.440;2023-06-10T10:27:26;4.50;;;2.70;;
3667;SDS011;24099;47.102;15.440;2023-06-10T10:29:57;4.07;;;2.83;;
3667;SDS011;24099;47.102;15.440;2023-06-10T10:32:26;3.92;;;2.97;;
3667;SDS011;24099;47.102;15.440;2023-06-10T10:35:06;3.97;;;2.78;;
3667;SDS011;24099;47.102;15.440;2023-06-10T10:37:38;4.55;;;2.75;;
3667;SDS011;24099;47.102;15.440;2023-06-10T10:40:07;3.15;;;2.72;;
3667;SDS011;24099;47.102;15.440;2023-06-10T10:42:36;3.50;;;2.70;;
3667;SDS011;24099;47.102;15.440;2023-06-10T10:45:05;4.50;;;2.60;;
3667;SDS011;24099;47.102;15.440;2023-06-10T10:47:35;3.38;;;2.65;;
3667;SDS011;24099;47.102;15.440;2023-06-10T10:50:14;3.80;;;2.42;;
3667;SDS011;24099;47.102;15.440;2023-06-10T10:52:54;3.97;;;2.92;;
3667;SDS011;24099;47.102;15.440;2023-06-10T10:55:23;3.60;;;2.63;;
3667;SDS011;24099;47.102;15.440;2023-06-10T10:57:55;4.20;;;2.80;;
3667;SDS011;24099;47.102;15.440;2023-06-10T11:00:27;4.63;;;2.88;;
3667;SDS011;24099;47.102;15.440;2023-06-10T11:03:00;3.28;;;2.25;;
3667;SDS011;24099;47.102;15.440;2023-06-10T11:05:38;3.65;;;3.05;;
3667;SDS011;24099;47.102;15.440;2023-06-10T11:08:07;5.25;;;2.80;;
3667;SDS011;24099;47.102;15.440;2023-06-10T11:10:36;3.35;;;2.33;;
3667;SDS011;24099;47.102;15.440;2023-06-10T11:13:05;3.63;;;2.50;;
3667;SDS011;24099;47.102;15.440;2023-06-10T11:15:39;3.10;;;2.80;;
3667;SDS011;24099;47.102;15.440;2023-06-10T11:18:20;3.00;;;2.05;;
3667;SDS011;24099;47.102;15.440;2023-06-10T11:20:54;3.83;;;2.70;;
3667;SDS011;24099;47.102;15.440;2023-06-10T11:26:17;4.15;;;2.50;;
3667;SDS011;24099;47.102;15.440;2023-06-10T11:31:49;4.13;;;2.95;;
3667;SDS011;24099;47.102;15.440;2023-06-10T11:34:24;3.40;;;2.47;;
3667;SDS011;24099;47.102;15.440;2023-06-10T11:36:54;2.45;;;2.22;;
3667;SDS011;24099;47.102;15.440;2023-06-10T11:39:23;4.35;;;2.75;;
3667;SDS011;24099;47.102;15.440;2023-06-10T11:41:52;3.08;;;2.40;;
3667;SDS011;24099;47.102;15.440;2023-06-10T11:44:20;5.90;;;2.33;;
3667;SDS011;24099;47.102;15.440;2023-06-10T11:46:48;3.67;;;2.58;;
3667;SDS011;24099;47.102;15.440;2023-06-10T11:49:17;3.42;;;2.60;;
3667;SDS011;24099;47.102;15.440;2023-06-10T11:51:47;2.10;;;1.90;;
3667;SDS011;24099;47.102;15.440;2023-06-10T11:54:18;3.00;;;2.38;;
3667;SDS011;24099;47.102;15.440;2023-06-10T11:56:47;4.35;;;2.65;;
3667;SDS011;24099;47.102;15.440;2023-06-10T11:59:15;4.20;;;2.25;;
3667;SDS011;24099;47.102;15.440;2023-06-10T12:01:43;3.53;;;2.15;;
3667;SDS011;24099;47.102;15.440;2023-06-10T12:04:12;3.83;;;2.53;;
3667;SDS011;24099;47.102;15.440;2023-06-10T12:06:44;4.88;;;2.47;;
3667;SDS011;24099;47.102;15.440;2023-06-10T12:09:14;3.55;;;2.28;;
3667;SDS011;24099;47.102;15.440;2023-06-10T12:11:45;3.10;;;2.20;;
3667;SDS011;24099;47.102;15.440;2023-06-10T12:14:15;3.17;;;2.40;;
3667;SDS011;24099;47.102;15.440;2023-06-10T12:17:04;3.65;;;2.33;;
3667;SDS011;24099;47.102;15.440;2023-06-10T12:19:37;3.33;;;2.35;;
3667;SDS011;24099;47.102;15.440;2023-06-10T12:22:05;2.40;;;2.00;;
3667;SDS011;24099;47.102;15.440;2023-06-10T12:24:33;2.83;;;2.20;;
3667;SDS011;24099;47.102;15.440;2023-06-10T12:27:12;2.40;;;1.83;;
3667;SDS011;24099;47.102;15.440;2023-06-10T12:29:50;2.20;;;2.00;;
3667;SDS011;24099;47.102;15.440;2023-06-10T12:32:20;3.05;;;1.85;;
3667;SDS011;24099;47.102;15.440;2023-06-10T12:35:01;2.05;;;1.83;;
3667;SDS011;24099;47.102;15.440;2023-06-10T12:37:30;2.13;;;1.92;;
3667;SDS011;24099;47.102;15.440;2023-06-10T12:40:00;2.75;;;2.13;;
3667;SDS011;24099;47.102;15.440;2023-06-10T12:42:30;3.40;;;2.60;;
3667;SDS011;24099;47.102;15.440;2023-06-10T12:44:59;2.55;;;2.08;;
3667;SDS011;24099;47.102;15.440;2023-06-10T12:47:32;3.45;;;2.03;;
3667;SDS011;24099;47.102;15.440;2023-06-10T12:50:02;2.70;;;2.05;;
3667;SDS011;24099;47.102;15.440;2023-06-10T12:52:30;2.13;;;1.92;;
3667;SDS011;24099;47.102;15.440;2023-06-10T12:54:58;2.33;;;2.08;;
3667;SDS011;24099;47.102;15.440;2023-06-10T12:57:26;2.28;;;2.05;;
3667;SDS011;24099;47.102;15.440;2023-06-10T12:59:56;2.55;;;2.17;;
3667;SDS011;24099;47.102;15.440;2023-06-10T13:02:29;2.72;;;2.22;;
3667;SDS011;24099;47.102;15.440;2023-06-10T13:04:57;2.65;;;2.10;;
3667;SDS011;24099;47.102;15.440;2023-06-10T13:07:24;3.47;;;2.22;;
3667;SDS011;24099;47.102;15.440;2023-06-10T13:09:52;3.72;;;2.38;;
3667;SDS011;24099;47.102;15.440;2023-06-10T13:12:20;2.58;;;2.20;;
3667;SDS011;24099;47.102;15.440;2023-06-10T13:14:48;4.55;;;2.20;;
3667;SDS011;24099;47.102;15.440;2023-06-10T13:17:17;3.67;;;2.45;;
3667;SDS011;24099;47.102;15.440;2023-06-10T13:19:45;2.35;;;2.08;;
3667;SDS011;24099;47.102;15.440;2023-06-10T13:22:14;2.85;;;2.20;;
3667;SDS011;24099;47.102;15.440;2023-06-10T13:24:41;2.67;;;2.25;;
3667;SDS011;24099;47.102;15.440;2023-06-10T13:27:10;2.45;;;2.25;;
3667;SDS011;24099;47.102;15.440;2023-06-10T13:29:39;3.40;;;2.50;;
3667;SDS011;24099;47.102;15.440;2023-06-10T13:32:07;3.53;;;2.30;;
3667;SDS011;24099;47.102;15.440;2023-06-10T13:34:36;2.60;;;1.92;;
3667;SDS011;24099;47.102;15.440;2023-06-10T13:37:04;2.20;;;1.98;;
3667;SDS011;24099;47.102;15.440;2023-06-10T13:39:32;4.35;;;2.05;;
3667;SDS011;24099;47.102;15.440;2023-06-10T13:42:00;3.08;;;2.47;;
3667;SDS011;24099;47.102;15.440;2023-06-10T13:44:27;2.28;;;1.95;;
3667;SDS011;24099;47.102;15.440;2023-06-10T13:46:58;3.33;;;2.40;;
3667;SDS011;24099;47.102;15.440;2023-06-10T13:49:26;3.20;;;2.15;;
3667;SDS011;24099;47.102;15.440;2023-06-10T13:51:56;2.47;;;1.77;;
3667;SDS011;24099;47.102;15.440;2023-06-10T13:54:23;2.08;;;1.88;;
3667;SDS011;24099;47.102;15.440;2023-06-10T13:56:52;2.67;;;1.80;;
3667;SDS011;24099;47.102;15.440;2023-06-10T13:59:20;2.72;;;2.03;;
3667;SDS011;24099;47.102;15.440;2023-06-10T14:01:48;2.17;;;1.98;;
3667;SDS011;24099;47.102;15.440;2023-06-10T14:04:16;2.38;;;1.58;;
3667;SDS011;24099;47.102;15.440;2023-06-10T14:06:44;3.03;;;2.05;;
3667;SDS011;24099;47.102;15.440;2023-06-10T14:09:14;3.38;;;1.92;;
3667;SDS011;24099;47.102;15.440;2023-06-10T14:11:42;3.22;;;2.00;;
3667;SDS011;24099;47.102;15.440;2023-06-10T14:14:10;4.25;;;2.00;;
3667;SDS011;24099;47.102;15.440;2023-06-10T14:16:43;2.20;;;2.00;;
3667;SDS011;24099;47.102;15.440;2023-06-10T14:19:10;4.38;;;2.28;;
3667;SDS011;24099;47.102;15.440;2023-06-10T14:21:38;2.45;;;2.20;;
3667;SDS011;24099;47.102;15.440;2023-06-10T14:24:07;2.17;;;1.83;;
3667;SDS011;24099;47.102;15.440;2023-06-10T14:26:36;3.25;;;2.15;;
3667;SDS011;24099;47.102;15.440;2023-06-10T14:29:04;2.55;;;2.17;;
3667;SDS011;24099;47.102;15.440;2023-06-10T14:31:32;4.90;;;2.35;;
3667;SDS011;24099;47.102;15.440;2023-06-10T14:34:02;2.45;;;2.08;;
3667;SDS011;24099;47.102;15.440;2023-06-10T14:36:31;2.83;;;2.25;;
3667;SDS011;24099;47.102;15.440;2023-06-10T14:38:59;2.75;;;2.10;;
3667;SDS011;24099;47.102;15.440;2023-06-10T14:41:26;2.70;;;2.38;;
3667;SDS011;24099;47.102;15.440;2023-06-10T14:43:55;3.22;;;2.25;;
3667;SDS011;24099;47.102;15.440;2023-06-10T14:46:23;3.45;;;2.28;;
3667;SDS011;24099;47.102;15.440;2023-06-10T14:48:51;2.55;;;2.15;;
3667;SDS011;24099;47.102;15.440;2023-06-10T14:51:19;2.90;;;2.17;;
3667;SDS011;24099;47.102;15.440;2023-06-10T14:53:47;3.15;;;1.95;;
3667;SDS011;24099;47.102;15.440;2023-06-10T14:56:15;3.00;;;2.30;;
3667;SDS011;24099;47.102;15.440;2023-06-10T14:58:43;4.00;;;2.25;;
3667;SDS011;24099;47.102;15.440;2023-06-10T15:01:12;5.70;;;2.33;;
3667;SDS011;24099;47.102;15.440;2023-06-10T15:03:40;2.63;;;1.98;;
3667;SDS011;24099;47.102;15.440;2023-06-10T15:06:08;3.65;;;2.10;;
3667;SDS011;24099;47.102;15.440;2023-06-10T15:08:36;2.72;;;2.30;;
3667;SDS011;24099;47.102;15.440;2023-06-10T15:11:03;2.72;;;2.50;;